Edmonton, Alberta

3:18 PM MST on February 10, 2016 (GMT -0700)
North Telford | | Change Station
CLOSE
Current Station
Personal Weather Station
Location: Leduc, ALBERTA
Elevation: 2385 ft
Nearby Weather Stations

Elev 2385 ft 53.27 °N, 113.54 °W | Updated 5 minutes ago

Overcast
Overcast
33.5 °F
Feels Like 30 °F
N
4.3
Wind Variable Wind from North

Today is forecast to be nearly the same temperature as yesterday.

Today
High -- | Low -- °F
--% Chance of Precip.
Yesterday
High -- | Low -- °F
Precip. -- in
Pressure 30.19 in
Visibility 15.0 miles
Clouds Mostly Cloudy 1400 ft
Overcast 2200 ft
Windchill 30 °F
Dew Point 29 °F
Humidity 84%
Rainfall Not available.
Snow Depth Not available.
8:03 AM 5:34 PM
Waxing Crescent, 7% visible
METAR CYEG 102200Z 11012KT 15SM BKN014 OVC022 00/M03 A3008 RMK SC7SC1 PRESFR SLP223
Pressure 30.19 in
Visibility 15.0 miles
Clouds Mostly Cloudy 1400 ft
Overcast 2200 ft
Windchill 30 °F
Dew Point 29 °F
Humidity 84%
Rainfall Not available.
Snow Depth Not available.
8:03 AM 5:34 PM
Waxing Crescent, 7% visible
METAR CYEG 102200Z 11012KT 15SM BKN014 OVC022 00/M03 A3008 RMK SC7SC1 PRESFR SLP223

10-Day Weather Forecast

Almanac

Astronomy

Feb. 10, 2016 Rise Set
Actual Time
Civil Twilight
Nautical Twilight
Astronomical Twilight
Moon
Length of Visible Light
Length of Day
Tomorrow will be .
, % of the Moon is Illuminated

Today's Extremes

Country Highs Country Lows

Community

WunderPhotos

Upload Photos

1,891,956 photos uploaded!

WunderBlog® & News

Nearby

Air Quality

  Air Quality AQ Index Pollutant
Not available.

Snow Depth

Station Depth Elevation

Earthquake Activity

City Distance Mag. Time & Date
Minimum magnitude displayed is 2.5.

Coastal Water Temperatures

Place Temperature

Stations

Nearby Weather Stations

Station Location Temp. Windchill Dew Point Humidity Wind Precip. Elev Updated Type
                   

Watches & Warnings

There are currently no watches in effect.